createdAt,value
2018-10-17T00:02:21.742Z,19.93
2018-10-17T00:04:50.858Z,27.93
2018-10-17T00:07:19.096Z,24.33
2018-10-17T00:09:47.218Z,22.20
2018-10-17T00:12:15.372Z,25.13
2018-10-17T00:14:43.516Z,26.23
2018-10-17T00:17:11.745Z,22.90
2018-10-17T00:19:39.874Z,21.87
2018-10-17T00:22:08.550Z,24.10
2018-10-17T00:24:36.690Z,21.73
2018-10-17T00:27:05.287Z,22.30
2018-10-17T00:29:33.426Z,26.13
2018-10-17T00:32:01.800Z,21.53
2018-10-17T00:34:29.952Z,20.00
2018-10-17T00:36:58.655Z,25.00
2018-10-17T00:39:26.843Z,23.93
2018-10-17T00:41:55.019Z,22.93
2018-10-17T00:44:23.236Z,23.20
2018-10-17T00:46:51.440Z,24.87
2018-10-17T00:49:19.634Z,23.23
2018-10-17T00:51:47.803Z,23.43
2018-10-17T00:54:15.923Z,21.77
2018-10-17T00:56:44.063Z,21.60
2018-10-17T00:59:14.317Z,23.40
2018-10-17T01:01:42.489Z,26.73
2018-10-17T01:04:10.935Z,22.80
2018-10-17T01:06:39.585Z,27.73
2018-10-17T01:09:14.889Z,29.57
2018-10-17T01:11:43.355Z,24.37
2018-10-17T01:14:11.561Z,20.80
2018-10-17T01:16:39.706Z,21.77
2018-10-17T01:19:07.985Z,21.37
2018-10-17T01:21:36.618Z,21.27
2018-10-17T01:24:07.026Z,21.90
2018-10-17T01:26:35.225Z,22.27
2018-10-17T01:29:03.459Z,22.20
2018-10-17T01:31:31.601Z,21.13
2018-10-17T01:33:59.785Z,23.40
2018-10-17T01:36:27.953Z,19.67
2018-10-17T01:38:56.077Z,22.43
2018-10-17T01:41:24.182Z,22.73
2018-10-17T01:43:52.269Z,26.10
2018-10-17T01:46:20.454Z,25.33
2018-10-17T01:48:48.565Z,23.20
2018-10-17T01:51:16.723Z,23.13
2018-10-17T01:53:44.880Z,21.63
2018-10-17T01:56:13.017Z,21.13
2018-10-17T01:58:41.137Z,22.77
2018-10-17T02:01:09.315Z,24.07
2018-10-17T02:03:37.404Z,24.70
2018-10-17T02:06:06.170Z,22.47
2018-10-17T02:08:34.304Z,24.63
2018-10-17T02:11:02.500Z,23.80
2018-10-17T02:13:30.520Z,21.07
2018-10-17T02:15:58.629Z,25.67
2018-10-17T02:18:26.712Z,27.60
2018-10-17T02:20:54.859Z,22.23
2018-10-17T02:23:22.954Z,20.87
2018-10-17T02:25:51.132Z,26.70
2018-10-17T02:28:21.650Z,23.23
2018-10-17T02:30:49.825Z,23.60
2018-10-17T02:33:17.982Z,22.50
2018-10-17T02:35:46.128Z,21.97
2018-10-17T02:38:14.241Z,23.67
2018-10-17T02:40:42.388Z,22.87
2018-10-17T02:43:10.591Z,22.13
2018-10-17T02:45:38.669Z,23.60
2018-10-17T02:48:06.786Z,21.93
2018-10-17T02:50:34.918Z,27.00
2018-10-17T02:53:03.097Z,22.70
2018-10-17T02:55:31.141Z,21.00
2018-10-17T02:57:59.298Z,24.43
2018-10-17T03:00:27.407Z,21.97
2018-10-17T03:02:55.535Z,21.03
2018-10-17T03:05:23.657Z,24.03
2018-10-17T03:07:51.792Z,25.50
2018-10-17T03:10:19.929Z,27.57
2018-10-17T03:12:48.026Z,25.30
2018-10-17T03:15:16.184Z,22.93
2018-10-17T03:17:44.345Z,23.07
2018-10-17T03:20:12.490Z,21.63
2018-10-17T03:22:40.701Z,22.23
2018-10-17T03:25:09.661Z,23.00
2018-10-17T03:27:37.761Z,20.30
2018-10-17T03:30:05.949Z,24.80
2018-10-17T03:32:34.091Z,19.53
2018-10-17T03:35:02.343Z,19.60
2018-10-17T03:37:30.450Z,21.20
2018-10-17T03:39:58.603Z,21.23
2018-10-17T03:42:27.559Z,25.83
2018-10-17T03:44:55.728Z,20.70
2018-10-17T03:47:23.887Z,23.10
2018-10-17T03:49:52.076Z,25.07
2018-10-17T03:52:20.165Z,20.30
2018-10-17T03:54:48.306Z,24.57
2018-10-17T03:57:16.479Z,22.20
2018-10-17T03:59:44.645Z,24.67
2018-10-17T04:02:12.841Z,20.23
2018-10-17T04:04:40.967Z,21.43
2018-10-17T04:07:09.318Z,21.93
2018-10-17T04:09:37.412Z,20.73
2018-10-17T04:12:05.594Z,21.30
2018-10-17T04:14:33.723Z,21.30
2018-10-17T04:17:01.877Z,21.67
2018-10-17T04:19:30.123Z,19.60
2018-10-17T04:21:58.471Z,19.93
2018-10-17T04:24:26.679Z,22.63
2018-10-17T04:26:54.901Z,20.83
2018-10-17T04:29:23.034Z,22.70
2018-10-17T04:31:51.230Z,22.73
2018-10-17T04:34:19.383Z,23.17
2018-10-17T04:36:48.902Z,23.10
2018-10-17T04:39:18.517Z,23.93
2018-10-17T04:41:46.611Z,21.33
2018-10-17T04:44:15.496Z,21.57
2018-10-17T04:46:43.702Z,26.30
2018-10-17T04:49:11.864Z,23.83
2018-10-17T04:51:39.936Z,23.87
2018-10-17T04:54:08.060Z,22.57
2018-10-17T04:56:36.181Z,23.67
2018-10-17T04:59:04.336Z,25.57
2018-10-17T05:01:32.505Z,22.97
2018-10-17T05:04:00.697Z,23.37
2018-10-17T05:06:28.847Z,26.73
2018-10-17T05:08:57.013Z,25.43
2018-10-17T05:11:25.199Z,24.33
2018-10-17T05:13:53.827Z,24.47
2018-10-17T05:16:22.485Z,25.03
2018-10-17T05:18:50.575Z,27.47
2018-10-17T05:21:18.829Z,30.90
2018-10-17T05:23:47.069Z,24.80
2018-10-17T05:26:15.245Z,24.63
2018-10-17T05:28:43.518Z,27.33
2018-10-17T05:31:12.294Z,29.53
2018-10-17T05:33:40.429Z,34.60
2018-10-17T05:36:08.589Z,27.33
2018-10-17T05:38:36.738Z,32.70
2018-10-17T05:41:05.218Z,33.73
2018-10-17T05:43:33.407Z,36.50
2018-10-17T05:46:01.558Z,30.97
2018-10-17T05:48:29.815Z,29.23
2018-10-17T05:50:57.934Z,25.13
2018-10-17T05:53:26.136Z,30.43
2018-10-17T05:55:54.379Z,31.23
2018-10-17T05:58:22.651Z,36.17
2018-10-17T06:00:50.843Z,28.37
2018-10-17T06:03:18.974Z,31.30
2018-10-17T06:05:47.141Z,36.30
2018-10-17T06:08:15.342Z,36.93
2018-10-17T06:10:43.550Z,39.77
2018-10-17T06:13:11.719Z,35.50
2018-10-17T06:15:39.805Z,34.67
2018-10-17T06:18:07.998Z,38.17
2018-10-17T06:20:36.078Z,33.63
2018-10-17T06:23:04.580Z,32.50
2018-10-17T06:25:32.665Z,32.87
2018-10-17T06:28:00.796Z,27.27
2018-10-17T06:30:28.993Z,29.83
2018-10-17T06:32:57.159Z,30.47
2018-10-17T06:35:25.349Z,23.90
2018-10-17T06:37:53.445Z,28.73
2018-10-17T06:40:21.680Z,26.77
2018-10-17T06:42:49.852Z,26.53
2018-10-17T06:45:17.969Z,25.87
2018-10-17T06:47:46.191Z,20.17
2018-10-17T06:50:14.363Z,19.83
2018-10-17T06:52:42.788Z,17.70
2018-10-17T06:55:11.182Z,20.20
2018-10-17T06:57:39.325Z,21.97
2018-10-17T07:00:07.869Z,21.47
2018-10-17T07:02:36.035Z,18.73
2018-10-17T07:05:04.260Z,18.43
2018-10-17T07:07:32.421Z,20.17
2018-10-17T07:10:00.545Z,19.27
2018-10-17T07:12:28.722Z,23.20
2018-10-17T07:14:56.889Z,19.57
2018-10-17T07:17:25.119Z,21.10
2018-10-17T07:19:53.259Z,20.23
2018-10-17T07:22:21.437Z,21.13
2018-10-17T07:24:49.576Z,19.77
2018-10-17T07:27:17.773Z,19.03
2018-10-17T07:29:46.021Z,18.90
2018-10-17T07:32:14.082Z,17.77
2018-10-17T07:34:42.235Z,19.20
2018-10-17T07:37:10.447Z,21.47
2018-10-17T07:39:38.692Z,20.87
2018-10-17T07:42:06.871Z,24.20
2018-10-17T07:44:35.052Z,20.17
2018-10-17T07:47:03.249Z,18.23
2018-10-17T07:49:31.457Z,21.37
2018-10-17T07:51:59.623Z,22.07
2018-10-17T07:54:27.922Z,19.83
2018-10-17T07:56:56.084Z,23.67
2018-10-17T07:59:24.207Z,27.53
2018-10-17T08:01:52.333Z,27.20
2018-10-17T08:04:20.487Z,28.67
2018-10-17T08:06:48.697Z,26.30
2018-10-17T08:09:16.867Z,29.07
2018-10-17T08:11:45.029Z,25.17
2018-10-17T08:14:13.185Z,28.30
2018-10-17T08:16:41.461Z,25.77
2018-10-17T08:19:09.646Z,27.40
2018-10-17T08:21:37.857Z,25.37
2018-10-17T08:24:06.111Z,27.50
2018-10-17T08:26:34.281Z,26.70
2018-10-17T08:29:02.404Z,25.50
2018-10-17T08:31:30.575Z,30.17
2018-10-17T08:33:58.699Z,31.23
2018-10-17T08:36:27.073Z,28.43
2018-10-17T08:38:55.049Z,31.20
2018-10-17T08:41:23.211Z,25.47
2018-10-17T08:43:51.448Z,29.93
2018-10-17T08:46:19.666Z,26.13
2018-10-17T08:48:47.845Z,29.00
2018-10-17T08:51:15.993Z,24.50
2018-10-17T08:53:44.203Z,30.33
2018-10-17T08:56:12.481Z,26.63
2018-10-17T08:58:40.604Z,30.37
2018-10-17T09:01:08.793Z,29.67
2018-10-17T09:03:37.002Z,27.97
2018-10-17T09:06:05.162Z,27.83
2018-10-17T09:08:33.272Z,29.67
2018-10-17T09:11:01.394Z,29.13
2018-10-17T09:13:29.539Z,30.20
2018-10-17T09:15:57.794Z,29.80
2018-10-17T09:18:25.971Z,29.63
2018-10-17T09:20:54.569Z,36.17
2018-10-17T09:23:22.372Z,30.40
2018-10-17T09:25:50.532Z,33.93
2018-10-17T09:28:18.848Z,32.87
2018-10-17T09:30:46.944Z,34.90
2018-10-17T09:33:15.113Z,35.13
2018-10-17T09:35:43.425Z,33.63
2018-10-17T09:38:11.530Z,38.03
2018-10-17T09:40:39.703Z,35.70
2018-10-17T09:43:07.959Z,35.27
2018-10-17T09:45:36.146Z,35.00
2018-10-17T09:48:04.857Z,30.00
2018-10-17T09:50:33.064Z,34.67
2018-10-17T09:53:01.255Z,32.17
2018-10-17T09:55:29.354Z,31.20
2018-10-17T09:57:57.577Z,33.73
2018-10-17T10:00:31.057Z,32.77
2018-10-17T10:02:59.199Z,32.17
2018-10-17T10:05:27.332Z,38.13
2018-10-17T10:07:55.538Z,32.63
2018-10-17T10:10:23.685Z,32.00
2018-10-17T10:12:51.884Z,31.33
2018-10-17T10:15:20.310Z,34.60
2018-10-17T10:17:48.610Z,37.60
2018-10-17T10:20:17.041Z,32.87
2018-10-17T10:22:45.540Z,31.30
2018-10-17T10:25:13.714Z,33.60
2018-10-17T10:27:41.827Z,33.53
2018-10-17T10:30:10.029Z,33.97
2018-10-17T10:32:38.146Z,33.13
2018-10-17T10:35:06.297Z,32.73
2018-10-17T10:37:34.489Z,29.83
2018-10-17T10:40:02.657Z,33.03
2018-10-17T10:42:30.846Z,30.47
2018-10-17T10:44:59.118Z,29.43
2018-10-17T10:47:27.237Z,30.20
2018-10-17T10:49:55.405Z,29.57
2018-10-17T10:52:23.610Z,30.23
2018-10-17T10:54:51.851Z,29.37
2018-10-17T10:57:20.203Z,32.80
2018-10-17T10:59:48.382Z,32.57
2018-10-17T11:02:16.619Z,31.83
2018-10-17T11:04:44.789Z,34.33
2018-10-17T11:07:12.945Z,31.97
2018-10-17T11:09:41.050Z,28.17
2018-10-17T11:12:09.183Z,28.87
2018-10-17T11:14:37.496Z,28.57
2018-10-17T11:17:05.585Z,29.03
2018-10-17T11:19:33.887Z,27.27
2018-10-17T11:22:02.152Z,29.37
2018-10-17T11:24:30.204Z,25.40
2018-10-17T11:26:58.454Z,27.67
2018-10-17T11:29:26.569Z,31.77
2018-10-17T11:31:54.777Z,33.97
2018-10-17T11:34:22.885Z,31.90
2018-10-17T11:36:51.009Z,28.93
2018-10-17T11:39:19.170Z,30.33
2018-10-17T11:41:47.317Z,30.43
2018-10-17T11:44:16.506Z,29.67
2018-10-17T11:46:44.687Z,27.20
2018-10-17T11:49:13.793Z,28.27
2018-10-17T11:51:41.934Z,29.33
2018-10-17T11:54:10.085Z,27.43
2018-10-17T11:56:38.233Z,29.70
2018-10-17T11:59:06.463Z,28.63
2018-10-17T12:01:34.668Z,31.40
2018-10-17T12:04:03.063Z,26.13
2018-10-17T12:06:31.107Z,29.60
2018-10-17T12:08:59.455Z,30.43
2018-10-17T12:11:27.714Z,29.33
2018-10-17T12:13:55.803Z,31.60
2018-10-17T12:16:23.915Z,24.10
2018-10-17T12:18:52.067Z,28.40
2018-10-17T12:21:20.309Z,25.40
2018-10-17T12:23:48.492Z,29.03
2018-10-17T12:26:16.639Z,25.10
2018-10-17T12:28:46.970Z,23.83
2018-10-17T12:31:16.428Z,26.80
2018-10-17T12:33:44.854Z,23.30
2018-10-17T12:36:13.227Z,24.47
2018-10-17T12:38:41.465Z,23.33
2018-10-17T12:41:09.803Z,23.53
2018-10-17T12:43:37.837Z,22.93
2018-10-17T12:46:05.967Z,24.77
2018-10-17T12:48:34.137Z,22.50
2018-10-17T12:51:02.475Z,27.03
2018-10-17T12:53:30.721Z,25.30
2018-10-17T12:55:58.873Z,22.00
2018-10-17T12:58:27.004Z,23.07
2018-10-17T13:00:55.153Z,21.17
2018-10-17T13:03:23.319Z,23.53
2018-10-17T13:05:51.499Z,21.23
2018-10-17T13:08:19.626Z,21.20
2018-10-17T13:10:47.778Z,18.67
2018-10-17T13:13:16.031Z,18.30
2018-10-17T13:15:44.085Z,21.27
2018-10-17T13:18:12.264Z,18.80
2018-10-17T13:20:40.394Z,21.03
2018-10-17T13:23:08.628Z,22.20
2018-10-17T13:25:36.804Z,24.47
2018-10-17T13:28:04.875Z,18.63
2018-10-17T13:30:34.065Z,21.07
2018-10-17T13:33:02.188Z,23.00
2018-10-17T13:35:30.343Z,17.57
2018-10-17T13:37:58.551Z,17.67
2018-10-17T13:40:26.857Z,17.10
2018-10-17T13:42:55.230Z,21.90
2018-10-17T13:45:23.474Z,22.23
2018-10-17T13:47:51.810Z,17.70
2018-10-17T13:50:20.012Z,18.87
2018-10-17T13:52:48.184Z,20.23
2018-10-17T13:55:16.455Z,20.53
2018-10-17T13:57:44.744Z,18.53
2018-10-17T14:00:13.316Z,20.43
2018-10-17T14:02:42.251Z,15.00
2018-10-17T14:05:10.852Z,15.73
2018-10-17T14:07:39.100Z,16.03
2018-10-17T14:10:07.327Z,18.60
2018-10-17T14:12:36.444Z,14.47
2018-10-17T14:15:05.021Z,13.33
2018-10-17T14:17:33.249Z,14.47
2018-10-17T14:20:01.437Z,13.50
2018-10-17T14:22:29.635Z,14.73
2018-10-17T14:24:58.043Z,15.83
2018-10-17T14:27:26.347Z,15.90
2018-10-17T14:29:54.722Z,13.73
2018-10-17T14:32:22.947Z,14.83
2018-10-17T14:34:51.294Z,14.03
2018-10-17T14:37:19.572Z,12.40
2018-10-17T14:39:47.787Z,17.83
2018-10-17T14:42:16.219Z,16.10
2018-10-17T14:44:44.335Z,16.00
2018-10-17T14:47:12.564Z,12.93
2018-10-17T14:49:40.878Z,16.63
2018-10-17T14:52:09.489Z,15.13
2018-10-17T14:54:37.906Z,15.73
2018-10-17T14:57:06.196Z,14.07
2018-10-17T14:59:34.320Z,15.40
2018-10-17T15:02:02.598Z,15.90
2018-10-17T15:04:30.841Z,15.17
2018-10-17T15:07:00.106Z,14.80
2018-10-17T15:09:29.854Z,16.97
2018-10-17T15:11:58.341Z,15.17
2018-10-17T15:14:27.464Z,14.23
2018-10-17T15:16:55.718Z,15.53
2018-10-17T15:19:24.813Z,12.23
2018-10-17T15:21:53.840Z,13.20
2018-10-17T15:24:22.240Z,15.83
2018-10-17T15:26:50.772Z,17.33
2018-10-17T15:29:19.131Z,16.50
2018-10-17T15:31:48.115Z,15.53
2018-10-17T15:34:17.949Z,20.00
2018-10-17T15:36:47.604Z,19.37
2018-10-17T15:39:16.840Z,20.17
2018-10-17T15:41:45.204Z,16.90
2018-10-17T15:44:14.304Z,22.17
2018-10-17T15:46:42.743Z,17.87
2018-10-17T15:49:10.959Z,16.70
2018-10-17T15:51:40.185Z,15.17
2018-10-17T15:54:08.728Z,20.70
2018-10-17T15:56:36.998Z,19.67
2018-10-17T15:59:05.935Z,20.27
2018-10-17T16:01:34.117Z,20.53
2018-10-17T16:04:03.029Z,20.93
2018-10-17T16:06:31.319Z,19.70
2018-10-17T16:08:59.597Z,18.83
2018-10-17T16:11:27.950Z,24.17
2018-10-17T16:13:56.739Z,22.27
2018-10-17T16:16:24.877Z,21.90
2018-10-17T16:18:53.297Z,21.23
2018-10-17T16:21:22.155Z,21.47
2018-10-17T16:23:50.728Z,22.13
2018-10-17T16:26:19.664Z,20.27
2018-10-17T16:28:48.580Z,19.30
2018-10-17T16:31:17.449Z,26.07
2018-10-17T16:33:46.041Z,19.43
2018-10-17T16:36:15.276Z,23.70
2018-10-17T16:38:43.868Z,18.57
2018-10-17T16:41:12.462Z,17.70
2018-10-17T16:43:41.231Z,19.13
2018-10-17T16:46:10.018Z,23.80
2018-10-17T16:48:39.032Z,23.00
2018-10-17T16:51:07.616Z,19.97
2018-10-17T16:53:36.127Z,22.50
2018-10-17T16:56:05.059Z,18.40
2018-10-17T16:58:33.781Z,24.10
2018-10-17T17:01:02.998Z,22.60
2018-10-17T17:03:31.567Z,16.70
2018-10-17T17:06:00.088Z,26.90
2018-10-17T17:08:28.606Z,22.70
2018-10-17T17:10:57.206Z,23.00
2018-10-17T17:13:25.797Z,25.20
2018-10-17T17:15:54.453Z,28.53
2018-10-17T17:18:23.070Z,29.53
2018-10-17T17:20:52.328Z,28.73
2018-10-17T17:23:20.935Z,29.27
2018-10-17T17:25:50.054Z,23.43
2018-10-17T17:28:19.077Z,22.90
2018-10-17T17:30:48.638Z,26.87
2018-10-17T17:33:17.255Z,21.00
2018-10-17T17:35:46.229Z,25.20
2018-10-17T17:38:15.001Z,23.67
2018-10-17T17:40:43.723Z,21.90
2018-10-17T17:43:12.359Z,21.97
2018-10-17T17:45:42.525Z,25.13
2018-10-17T17:48:11.306Z,28.07
2018-10-17T17:50:39.930Z,29.90
2018-10-17T17:53:08.575Z,27.83
2018-10-17T17:55:37.270Z,28.90
2018-10-17T17:58:05.974Z,25.30
2018-10-17T18:00:34.735Z,30.73
2018-10-17T18:03:03.840Z,34.83
2018-10-17T18:05:32.946Z,29.70
2018-10-17T18:08:01.493Z,26.90
2018-10-17T18:10:30.105Z,23.57
2018-10-17T18:12:58.922Z,23.53
2018-10-17T18:15:27.543Z,25.50
2018-10-17T18:17:56.606Z,31.27
2018-10-17T18:20:25.291Z,25.37
2018-10-17T18:22:53.941Z,27.50
2018-10-17T18:25:22.573Z,31.60
2018-10-17T18:27:51.500Z,26.70
2018-10-17T18:30:19.715Z,27.80
2018-10-17T18:32:47.884Z,26.20
2018-10-17T18:35:16.633Z,27.70
2018-10-17T18:37:45.010Z,30.20
2018-10-17T18:40:13.369Z,30.43
2018-10-17T18:42:42.193Z,29.83
2018-10-17T18:45:10.594Z,24.43
2018-10-17T18:47:38.981Z,28.67
2018-10-17T18:50:07.623Z,27.77
2018-10-17T18:52:36.093Z,26.17
2018-10-17T18:55:04.949Z,22.83
2018-10-17T18:57:33.154Z,26.73
2018-10-17T19:00:01.408Z,29.77
2018-10-17T19:02:30.548Z,24.53
2018-10-17T19:04:58.805Z,23.13
2018-10-17T19:07:27.392Z,24.43
2018-10-17T19:09:57.598Z,26.13
2018-10-17T19:12:27.046Z,25.40
2018-10-17T19:14:55.544Z,25.20
2018-10-17T19:17:23.726Z,24.10
2018-10-17T19:19:51.981Z,27.07
2018-10-17T19:22:20.230Z,22.57
2018-10-17T19:24:48.620Z,23.60
2018-10-17T19:27:16.921Z,26.23
2018-10-17T19:29:45.248Z,24.20
2018-10-17T19:32:13.722Z,23.23
2018-10-17T19:34:42.961Z,22.67
2018-10-17T19:37:13.987Z,24.23
2018-10-17T19:39:42.389Z,24.97
2018-10-17T19:42:10.617Z,23.30
2018-10-17T19:44:38.977Z,25.07
2018-10-17T19:47:07.900Z,24.03
2018-10-17T19:49:36.132Z,21.00
2018-10-17T19:52:04.946Z,24.60
2018-10-17T19:54:33.340Z,24.93
2018-10-17T19:57:01.667Z,24.70
2018-10-17T19:59:29.855Z,24.67
2018-10-17T20:01:58.120Z,22.27
2018-10-17T20:04:26.315Z,24.00
2018-10-17T20:06:54.490Z,22.77
2018-10-17T20:09:22.741Z,23.33
2018-10-17T20:11:50.992Z,20.63
2018-10-17T20:14:19.308Z,20.80
2018-10-17T20:16:47.547Z,21.70
2018-10-17T20:19:15.747Z,22.43
2018-10-17T20:21:44.012Z,19.70
2018-10-17T20:24:14.222Z,19.63
2018-10-17T20:26:42.376Z,22.53
2018-10-17T20:29:10.531Z,26.93
2018-10-17T20:31:38.673Z,25.77
2018-10-17T20:34:06.811Z,21.77
2018-10-17T20:36:34.982Z,24.00
2018-10-17T20:39:03.502Z,26.10
2018-10-17T20:41:31.606Z,23.20
2018-10-17T20:43:59.752Z,22.37
2018-10-17T20:46:27.932Z,24.70
2018-10-17T20:48:56.076Z,22.70
2018-10-17T20:51:24.213Z,22.13
2018-10-17T20:53:52.835Z,25.33
2018-10-17T20:56:21.016Z,21.57
2018-10-17T20:58:49.103Z,25.20
2018-10-17T21:01:17.276Z,22.80
2018-10-17T21:03:45.404Z,22.60
2018-10-17T21:06:13.532Z,25.70
2018-10-17T21:08:41.683Z,25.93
2018-10-17T21:11:09.861Z,26.07
2018-10-17T21:13:37.972Z,34.57
2018-10-17T21:16:06.103Z,27.30
2018-10-17T21:18:34.416Z,29.20
2018-10-17T21:21:02.391Z,33.70
2018-10-17T21:23:30.556Z,29.07
2018-10-17T21:25:58.743Z,27.97
2018-10-17T21:28:26.857Z,28.27
2018-10-17T21:30:54.976Z,25.70
2018-10-17T21:33:23.121Z,26.70
2018-10-17T21:35:51.281Z,27.13
2018-10-17T21:38:19.469Z,28.37
2018-10-17T21:40:47.538Z,25.70
2018-10-17T21:43:15.689Z,26.67
2018-10-17T21:45:43.811Z,25.67
2018-10-17T21:48:11.947Z,24.17
2018-10-17T21:50:40.140Z,27.83
2018-10-17T21:53:08.250Z,28.93
2018-10-17T21:55:36.370Z,31.63
2018-10-17T21:58:04.511Z,30.00
2018-10-17T22:00:32.675Z,29.93
2018-10-17T22:03:00.865Z,28.33
2018-10-17T22:05:28.959Z,24.53
2018-10-17T22:07:57.123Z,25.13
2018-10-17T22:10:25.268Z,28.87
2018-10-17T22:12:53.400Z,28.63
2018-10-17T22:15:21.514Z,27.77
2018-10-17T22:17:49.633Z,25.90
2018-10-17T22:20:17.761Z,30.13
2018-10-17T22:22:45.988Z,27.53
2018-10-17T22:25:14.046Z,27.70
2018-10-17T22:27:42.126Z,25.77
2018-10-17T22:30:10.342Z,27.27
2018-10-17T22:32:38.446Z,26.43
2018-10-17T22:35:06.595Z,30.53
2018-10-17T22:37:34.741Z,28.07
2018-10-17T22:40:02.853Z,26.63
2018-10-17T22:42:30.974Z,29.10
2018-10-17T22:44:59.068Z,28.40
2018-10-17T22:47:27.174Z,27.00
2018-10-17T22:49:55.327Z,31.10
2018-10-17T22:52:23.520Z,30.03
2018-10-17T22:54:51.644Z,29.13
2018-10-17T22:57:19.730Z,28.57
2018-10-17T22:59:47.900Z,28.20
2018-10-17T23:02:16.080Z,29.23
2018-10-17T23:04:44.150Z,27.53
2018-10-17T23:07:12.318Z,32.60
2018-10-17T23:09:40.433Z,25.77
2018-10-17T23:12:08.558Z,29.47
2018-10-17T23:14:36.696Z,28.20
2018-10-17T23:17:04.959Z,30.27
2018-10-17T23:19:33.076Z,26.77
2018-10-17T23:22:01.223Z,27.97
2018-10-17T23:24:29.384Z,26.50
2018-10-17T23:26:57.499Z,33.50
2018-10-17T23:29:25.658Z,27.37
2018-10-17T23:31:53.795Z,27.03
2018-10-17T23:34:21.893Z,23.43
2018-10-17T23:36:50.010Z,26.37
2018-10-17T23:39:18.165Z,25.77
2018-10-17T23:41:46.323Z,26.80
2018-10-17T23:44:14.474Z,32.83
2018-10-17T23:46:42.581Z,28.13
2018-10-17T23:49:10.723Z,25.80
2018-10-17T23:51:38.832Z,25.80
2018-10-17T23:54:07.066Z,25.07
2018-10-17T23:56:35.163Z,28.53
2018-10-17T23:59:03.277Z,25.67
